createdAt,value
2022-12-20T00:01:34.191Z,-5.95
2022-12-20T00:04:05.217Z,-5.84
2022-12-20T00:06:34.729Z,-5.95
2022-12-20T00:09:05.349Z,-5.82
2022-12-20T00:11:33.498Z,-5.93
2022-12-20T00:14:01.336Z,-5.81
2022-12-20T00:16:29.693Z,-5.79
2022-12-20T00:18:59.247Z,-5.81
2022-12-20T00:21:29.032Z,-5.76
2022-12-20T00:23:57.352Z,-5.76
2022-12-20T00:26:27.268Z,-5.67
2022-12-20T00:28:55.647Z,-5.58
2022-12-20T00:31:24.714Z,-5.64
2022-12-20T00:33:54.527Z,-5.62
2022-12-20T00:36:23.706Z,-5.52
2022-12-20T00:38:54.079Z,-5.58
2022-12-20T00:41:23.783Z,-5.60
2022-12-20T00:43:51.786Z,-5.59
2022-12-20T00:46:21.110Z,-5.54
2022-12-20T00:48:49.165Z,-5.61
2022-12-20T00:51:21.090Z,-5.50
2022-12-20T00:53:49.219Z,-5.46
2022-12-20T00:56:19.187Z,-5.46
2022-12-20T00:58:46.811Z,-5.41
2022-12-20T01:01:20.915Z,-5.40
2022-12-20T01:03:49.319Z,-5.38
2022-12-20T07:48:46.295Z,-2.69
2022-12-20T07:51:18.953Z,-2.64
2022-12-20T07:53:52.570Z,-2.59
2022-12-20T07:56:22.371Z,-2.60
2022-12-20T07:58:54.166Z,-2.54
2022-12-20T08:01:23.193Z,-2.43
2022-12-20T08:03:56.376Z,-2.42
2022-12-20T08:06:24.162Z,-2.42
2022-12-20T08:08:57.981Z,-2.38
2022-12-20T08:11:27.729Z,-2.25
2022-12-20T08:13:57.977Z,-2.19
2022-12-20T08:16:26.712Z,-2.11
2022-12-20T08:18:55.786Z,-2.00
2022-12-20T08:21:23.427Z,-1.91
2022-12-20T08:23:51.168Z,-1.77
2022-12-20T08:26:18.992Z,-1.71
2022-12-20T08:28:46.913Z,-1.64
2022-12-20T08:31:14.856Z,-1.48
2022-12-20T08:33:42.588Z,-1.49
2022-12-20T08:36:13.623Z,-1.35
2022-12-20T08:38:42.085Z,-1.19
2022-12-20T08:41:11.674Z,-1.08
2022-12-20T08:43:40.366Z,-0.94
2022-12-20T08:46:10.023Z,-0.68
2022-12-20T08:48:38.248Z,-0.48
2022-12-20T08:51:07.896Z,-0.31
2022-12-20T08:53:38.333Z,-0.30
2022-12-20T08:56:08.719Z,-0.31
2022-12-20T08:58:37.202Z,-0.38
2022-12-20T09:01:07.177Z,-0.38
2022-12-20T09:03:36.559Z,-0.15
2022-12-20T09:06:06.881Z,-0.07
2022-12-20T09:08:35.850Z,-0.01
2022-12-20T09:11:08.263Z,-0.09
2022-12-20T09:13:43.337Z,-0.06
2022-12-20T09:16:13.482Z,-0.01
2022-12-20T09:18:41.569Z,-0.06
2022-12-20T09:21:10.793Z,0.08
2022-12-20T09:23:38.819Z,0.05
2022-12-20T09:26:11.366Z,0.08
2022-12-20T09:28:39.351Z,0.09
2022-12-20T09:31:10.978Z,0.15
2022-12-20T09:33:38.772Z,0.19
2022-12-20T09:36:10.510Z,0.19
2022-12-20T09:38:38.660Z,0.24
2022-12-20T09:41:20.653Z,0.24
2022-12-20T09:43:50.641Z,0.39
2022-12-20T10:00:26.760Z,1.08
2022-12-20T10:03:02.093Z,1.13
2022-12-20T10:05:41.735Z,1.08
2022-12-20T10:08:20.086Z,1.09
2022-12-20T10:10:56.335Z,1.13
2022-12-20T10:13:35.265Z,1.25
2022-12-20T10:16:21.927Z,1.25
2022-12-20T10:19:01.480Z,1.31
2022-12-20T10:21:40.713Z,1.42
2022-12-20T10:24:16.467Z,1.49
2022-12-20T10:26:45.904Z,1.51
2022-12-20T10:29:13.768Z,1.60
2022-12-20T10:31:43.027Z,1.68
2022-12-20T10:34:10.997Z,1.65
2022-12-20T10:36:38.819Z,1.67
2022-12-20T10:39:08.762Z,1.70
2022-12-20T10:41:48.338Z,1.65
2022-12-20T10:44:22.657Z,1.69
2022-12-20T10:46:55.147Z,1.74
2022-12-20T10:49:28.693Z,1.74
2022-12-20T10:51:58.170Z,1.70
2022-12-20T10:54:30.574Z,1.63
2022-12-20T10:57:00.471Z,1.62
2022-12-20T10:59:32.807Z,1.58
2022-12-20T11:02:03.476Z,1.60
2022-12-20T11:04:34.281Z,1.63
2022-12-20T12:26:18.201Z,0.85
2022-12-20T12:36:38.965Z,0.80
2022-12-20T12:39:29.259Z,0.76
2022-12-20T12:42:32.384Z,0.74
2022-12-20T12:45:04.773Z,0.71
2022-12-20T12:47:38.728Z,0.65
2022-12-20T12:50:16.459Z,0.61
2022-12-20T12:52:49.216Z,0.58
2022-12-20T12:55:43.097Z,0.51
2022-12-20T12:58:32.235Z,0.46
2022-12-20T13:01:02.008Z,0.37
2022-12-20T13:03:42.810Z,0.34
2022-12-20T13:06:47.695Z,0.28
2022-12-20T13:09:21.700Z,0.27
2022-12-20T13:11:55.524Z,0.18
2022-12-20T13:14:51.102Z,0.11
2022-12-20T13:17:48.545Z,0.04
2022-12-20T13:20:19.885Z,-0.02
2022-12-20T13:23:14.677Z,-0.07
2022-12-20T13:25:44.178Z,-0.10
2022-12-20T13:28:45.789Z,-0.22
2022-12-20T13:31:33.461Z,-0.22
2022-12-20T13:34:01.851Z,-0.30
2022-12-20T13:36:35.840Z,-0.36
2022-12-20T13:39:34.140Z,-0.45
2022-12-20T13:42:22.848Z,-0.52
2022-12-20T13:44:53.006Z,-0.62
2022-12-20T13:47:42.130Z,-0.67
2022-12-20T13:50:24.176Z,-0.78
2022-12-20T13:52:52.382Z,-0.92
2022-12-20T13:55:27.334Z,-0.95
2022-12-20T13:57:55.709Z,-1.11
2022-12-20T14:00:26.289Z,-1.18
2022-12-20T14:02:56.098Z,-1.26
2022-12-20T14:05:26.607Z,-1.37
2022-12-20T14:07:59.554Z,-1.37
2022-12-20T14:10:29.585Z,-1.48
2022-12-20T14:12:58.047Z,-1.51
2022-12-20T14:15:29.519Z,-1.55
2022-12-20T14:18:05.638Z,-1.69
2022-12-20T14:20:35.243Z,-1.71
2022-12-20T14:23:06.503Z,-1.81
2022-12-20T14:25:42.110Z,-1.94
2022-12-20T14:28:26.473Z,-1.96
2022-12-20T14:30:55.949Z,-2.11
2022-12-20T14:33:30.420Z,-2.15
2022-12-20T14:36:08.602Z,-2.18
2022-12-20T14:38:36.450Z,-2.31
2022-12-20T14:41:04.115Z,-2.39
2022-12-20T14:43:35.266Z,-2.43
2022-12-20T14:46:17.554Z,-2.57
2022-12-20T14:48:47.190Z,-2.61
2022-12-20T14:51:20.932Z,-2.73
2022-12-20T14:53:51.558Z,-2.80
2022-12-20T14:56:27.889Z,-2.78
2022-12-20T14:59:06.418Z,-2.92
2022-12-20T15:01:38.505Z,-3.05
2022-12-20T15:04:24.644Z,-3.27
2022-12-20T15:06:52.689Z,-3.22
2022-12-20T15:09:21.271Z,-3.37
2022-12-20T15:11:50.518Z,-3.44
2022-12-20T15:14:32.135Z,-3.54
2022-12-20T15:16:59.950Z,-3.51
2022-12-20T15:19:29.118Z,-3.51
2022-12-20T15:21:56.941Z,-3.48
2022-12-20T15:24:27.147Z,-3.60
2022-12-20T15:26:55.333Z,-3.85
2022-12-20T15:29:24.635Z,-3.97
2022-12-20T15:32:04.469Z,-3.97
2022-12-20T15:34:35.804Z,-3.94
2022-12-20T15:37:04.210Z,-4.17
2022-12-20T15:39:34.008Z,-4.31
2022-12-20T15:42:04.837Z,-4.16
2022-12-20T16:05:50.503Z,-4.63
2022-12-20T16:08:18.634Z,-4.51
2022-12-20T16:10:47.189Z,-4.47
2022-12-20T16:13:20.959Z,-4.53
2022-12-20T16:15:49.221Z,-4.38
2022-12-20T16:18:17.049Z,-4.23
2022-12-20T16:20:44.833Z,-4.13
2022-12-20T16:23:18.024Z,-3.98
2022-12-20T16:25:46.296Z,-3.91
2022-12-20T16:28:14.019Z,-3.80
2022-12-20T16:30:45.299Z,-3.67
2022-12-20T16:33:20.412Z,-3.53
2022-12-20T16:35:48.594Z,-3.41
2022-12-20T16:38:17.829Z,-3.33
2022-12-20T16:40:45.395Z,-3.26
2022-12-20T16:43:14.864Z,-3.12
2022-12-20T16:45:42.537Z,-2.99
2022-12-20T16:48:11.801Z,-2.87
2022-12-20T16:50:39.422Z,-2.78
2022-12-20T16:53:07.134Z,-2.67
2022-12-20T16:55:39.710Z,-2.58
2022-12-20T16:58:08.597Z,-2.49
2022-12-20T17:00:36.301Z,-2.41
2022-12-20T17:03:04.227Z,-2.37
2022-12-20T17:05:35.455Z,-2.23
2022-12-20T17:08:03.532Z,-2.22
2022-12-20T17:10:31.197Z,-2.20
2022-12-20T17:13:00.558Z,-2.15
2022-12-20T17:15:30.847Z,-2.12
2022-12-20T17:17:58.423Z,-2.09
2022-12-20T17:20:26.360Z,-2.08
2022-12-20T17:25:40.790Z,-2.01
2022-12-20T17:28:09.879Z,-2.00
2022-12-20T17:30:37.473Z,-2.03
2022-12-20T17:33:05.347Z,-2.02
2022-12-20T17:59:12.325Z,-1.77
2022-12-20T18:01:40.735Z,-1.76
2022-12-20T18:04:10.380Z,-1.77
2022-12-20T18:06:40.590Z,-1.75
2022-12-20T18:09:17.571Z,-1.73
2022-12-20T18:11:46.108Z,-1.69
2022-12-20T18:14:15.904Z,-1.67
2022-12-20T18:16:44.578Z,-1.63
2022-12-20T18:19:16.783Z,-1.63
2022-12-20T18:21:44.739Z,-1.59
2022-12-20T18:24:12.963Z,-1.61
2022-12-20T18:26:41.091Z,-1.54
2022-12-20T18:29:11.039Z,-1.52
2022-12-20T18:31:40.184Z,-1.54
2022-12-20T18:34:08.237Z,-1.54
2022-12-20T18:36:38.047Z,-1.56
2022-12-20T18:39:08.178Z,-1.55
2022-12-20T18:41:36.066Z,-1.53
2022-12-20T18:44:06.404Z,-1.54
2022-12-20T18:46:34.363Z,-1.52
2022-12-20T18:49:04.421Z,-1.49
2022-12-20T18:51:34.131Z,-1.47
2022-12-20T18:54:02.082Z,-1.46
2022-12-20T18:56:32.694Z,-1.46
2022-12-20T18:59:08.185Z,-1.45
2022-12-20T19:01:42.210Z,-1.40
2022-12-20T19:04:11.727Z,-1.41
2022-12-20T19:06:39.887Z,-1.39
2022-12-20T19:09:10.614Z,-1.40
2022-12-20T19:11:38.316Z,-1.32
2022-12-20T19:14:06.216Z,-1.35
2022-12-20T19:16:34.621Z,-1.26
2022-12-20T19:19:03.610Z,-1.33
2022-12-20T19:21:34.927Z,-1.24
2022-12-20T19:24:05.299Z,-1.22
2022-12-20T19:26:34.359Z,-1.20
2022-12-20T19:29:02.276Z,-1.23
2022-12-20T19:31:31.680Z,-1.20
2022-12-20T19:34:02.053Z,-1.17
2022-12-20T19:36:31.441Z,-1.12
2022-12-20T19:39:01.885Z,-1.14
2022-12-20T19:41:32.637Z,-1.09
2022-12-20T19:44:00.540Z,-1.05
2022-12-20T19:46:29.674Z,-1.08
2022-12-20T19:48:59.506Z,-1.08
2022-12-20T19:51:28.129Z,-1.06
2022-12-20T19:53:56.756Z,-1.07
2022-12-20T19:56:27.978Z,-1.08
2022-12-20T19:58:56.180Z,-1.15
2022-12-20T20:01:24.681Z,-1.19
2022-12-20T20:03:53.073Z,-1.24
2022-12-20T20:06:21.239Z,-1.26
2022-12-20T20:08:49.090Z,-1.26
2022-12-20T20:11:17.882Z,-1.29
2022-12-20T20:13:47.165Z,-1.30
2022-12-20T20:16:21.617Z,-1.29
2022-12-20T20:18:50.985Z,-1.26
2022-12-20T20:21:22.153Z,-1.24
2022-12-20T20:23:50.702Z,-1.25
2022-12-20T20:26:24.161Z,-1.24
2022-12-20T20:28:53.673Z,-1.23
2022-12-20T20:31:22.638Z,-1.24
2022-12-20T20:33:50.955Z,-1.27
2022-12-20T20:36:20.984Z,-1.29
2022-12-20T20:38:49.306Z,-1.25
2022-12-20T20:41:18.172Z,-1.28
2022-12-20T20:43:46.131Z,-1.31
